Archers Lodge, North Carolina
Current Conditions -  °F | °C
As of 6:55 AM on Saturday 01 Nov 2014 (Local Time) from KJNX Reporting Station
Moderate Rain Moderate Rain  
Wind Chill: 40°   Ceiling: 4600
Heat Index: 45°   Visibility: 10mi
Dew Point: 45°   Wind: 8mph
Humidity: 100%   Direction: 20°NNE
Pressure: 29.73"   Gusts: NA
Location:  35.6101°N, 78.4715°W
Report Text: KJNX 011055Z AUTO 02007KT 10SM RA BKN046 OVC050 07/07 A2973 RMK AO2 P0001
Loading
Personal Weather Stations






























Interactive Weather Map
Tropical Storm Tracking
New forecast layout! Learn more

10-Day Weather Forecast

Advertisements
Track Severe Weather on mobile